createdAt,value
2019-04-01T00:00:27.188Z,100954.00
2019-04-01T00:02:57.503Z,100966.00
2019-04-01T00:05:25.891Z,100960.00
2019-04-01T00:07:54.497Z,100959.00
2019-04-01T00:10:23.244Z,100972.00
2019-04-01T00:12:51.623Z,100965.00
2019-04-01T00:15:20.335Z,100969.00
2019-04-01T00:17:48.651Z,100963.00
2019-04-01T00:20:17.324Z,100964.00
2019-04-01T00:22:45.748Z,100971.00
2019-04-01T00:25:14.014Z,100974.00
2019-04-01T00:27:42.499Z,100969.00
2019-04-01T00:30:10.898Z,100965.00
2019-04-01T00:32:39.231Z,100975.00
2019-04-01T00:35:08.051Z,100969.00
2019-04-01T00:37:36.484Z,100975.00
2019-04-01T00:40:05.028Z,100981.00
2019-04-01T00:42:41.703Z,100979.00
2019-04-01T00:45:13.466Z,100978.00
2019-04-01T00:47:41.756Z,100987.00
2019-04-01T00:50:10.353Z,100993.00
2019-04-01T00:52:38.909Z,100993.00
2019-04-01T00:55:07.614Z,100991.00
2019-04-01T00:57:35.973Z,100991.00
2019-04-01T01:00:05.753Z,100991.00
2019-04-01T01:02:34.266Z,101000.00
2019-04-01T01:05:04.929Z,101009.00
2019-04-01T01:07:33.447Z,101005.00
2019-04-01T01:10:02.336Z,101012.00
2019-04-01T01:12:31.507Z,101011.00
2019-04-01T01:15:00.355Z,101017.00
2019-04-01T01:17:30.029Z,101021.00
2019-04-01T01:19:58.790Z,101025.00
2019-04-01T01:22:27.257Z,101023.00
2019-04-01T01:24:56.184Z,101024.00
2019-04-01T01:27:24.539Z,101027.00
2019-04-01T01:29:53.504Z,101028.00
2019-04-01T01:32:21.808Z,101035.00
2019-04-01T01:34:50.217Z,101034.00
2019-04-01T01:37:18.647Z,101030.00
2019-04-01T01:39:47.334Z,101038.00
2019-04-01T01:42:15.760Z,101042.00
2019-04-01T01:44:44.408Z,101041.00
2019-04-01T01:47:12.788Z,101045.00
2019-04-01T01:49:41.183Z,101044.00
2019-04-01T01:52:09.580Z,101045.00
2019-04-01T01:54:38.171Z,101036.00
2019-04-01T01:57:07.208Z,101042.00
2019-04-01T01:59:35.474Z,101059.00
2019-04-01T02:02:05.013Z,101056.00
2019-04-01T02:04:33.578Z,101061.00
2019-04-01T02:07:04.428Z,101070.00
2019-04-01T02:09:32.781Z,101059.00
2019-04-01T02:12:01.975Z,101066.00
2019-04-01T02:14:30.468Z,101065.00
2019-04-01T02:16:59.212Z,101067.00
2019-04-01T02:19:27.835Z,101064.00
2019-04-01T02:21:56.372Z,101064.00
2019-04-01T02:24:25.305Z,101068.00
2019-04-01T02:26:53.981Z,101071.00
2019-04-01T02:29:22.581Z,101071.00
2019-04-01T02:31:51.266Z,101065.00
2019-04-01T02:34:19.941Z,101065.00
2019-04-01T02:36:49.034Z,101082.00
2019-04-01T02:39:17.338Z,101073.00
2019-04-01T02:41:45.582Z,101080.00
2019-04-01T02:44:14.098Z,101085.00
2019-04-01T02:46:42.802Z,101081.00
2019-04-01T02:49:11.142Z,101090.00
2019-04-01T02:51:39.527Z,101080.00
2019-04-01T02:54:08.234Z,101083.00
2019-04-01T02:56:36.925Z,101083.00
2019-04-01T02:59:05.173Z,101088.00
2019-04-01T03:01:33.773Z,101103.00
2019-04-01T03:04:02.374Z,101092.00
2019-04-01T03:06:31.095Z,101101.00
2019-04-01T03:09:01.373Z,101103.00
2019-04-01T03:11:30.079Z,101102.00
2019-04-01T03:13:58.628Z,101109.00
2019-04-01T03:16:26.918Z,101111.00
2019-04-01T03:18:55.721Z,101114.00
2019-04-01T03:21:27.506Z,101117.00
2019-04-01T03:23:55.877Z,101125.00
2019-04-01T03:26:24.811Z,101122.00
2019-04-01T03:28:53.237Z,101126.00
2019-04-01T03:31:21.669Z,101124.00
2019-04-01T03:33:50.325Z,101132.00
2019-04-01T03:36:18.726Z,101132.00
2019-04-01T03:38:47.077Z,101140.00
2019-04-01T03:41:15.417Z,101136.00
2019-04-01T03:43:43.825Z,101150.00
2019-04-01T03:46:12.096Z,101149.00
2019-04-01T03:48:40.936Z,101143.00
2019-04-01T03:51:09.197Z,101152.00
2019-04-01T03:53:38.041Z,101172.00
2019-04-01T03:56:06.634Z,101157.00
2019-04-01T03:58:35.306Z,101163.00
2019-04-01T04:01:04.578Z,101161.00
2019-04-01T04:03:33.049Z,101167.00
2019-04-01T04:06:01.965Z,101164.00
2019-04-01T04:08:39.304Z,101167.00
2019-04-01T04:11:09.723Z,101172.00
2019-04-01T04:13:38.484Z,101169.00
2019-04-01T04:16:07.249Z,101183.00
2019-04-01T04:18:36.377Z,101176.00
2019-04-01T04:21:04.850Z,101186.00
2019-04-01T04:23:33.562Z,101182.00
2019-04-01T04:26:03.357Z,101190.00
2019-04-01T04:28:32.346Z,101186.00
2019-04-01T04:31:00.795Z,101194.00
2019-04-01T04:33:29.958Z,101196.00
2019-04-01T04:35:58.541Z,101203.00
2019-04-01T04:38:27.757Z,101190.00
2019-04-01T04:40:57.257Z,101196.00
2019-04-01T04:43:25.846Z,101204.00
2019-04-01T04:45:54.203Z,101205.00
2019-04-01T04:48:23.657Z,101207.00
2019-04-01T04:50:52.529Z,101216.00
2019-04-01T04:53:21.472Z,101217.00
2019-04-01T04:55:50.651Z,101222.00
2019-04-01T04:58:19.577Z,101219.00
2019-04-01T05:00:48.194Z,101221.00
2019-04-01T05:03:16.761Z,101212.00
2019-04-01T05:05:45.697Z,101227.00
2019-04-01T05:08:14.387Z,101243.00
2019-04-01T05:10:43.397Z,101243.00
2019-04-01T05:13:13.779Z,101235.00
2019-04-01T05:15:42.798Z,101248.00
2019-04-01T05:18:11.494Z,101251.00
2019-04-01T05:20:41.089Z,101254.00
2019-04-01T05:23:11.389Z,101258.00
2019-04-01T05:25:41.031Z,101267.00
2019-04-01T05:28:13.167Z,101265.00
2019-04-01T05:30:43.384Z,101269.00
2019-04-01T05:33:15.742Z,101266.00
2019-04-01T05:35:44.284Z,101271.00
2019-04-01T05:38:13.162Z,101276.00
2019-04-01T05:40:41.915Z,101291.00
2019-04-01T05:43:11.189Z,101284.00
2019-04-01T05:45:39.550Z,101284.00
2019-04-01T05:48:08.750Z,101282.00
2019-04-01T05:50:37.147Z,101293.00
2019-04-01T05:53:05.935Z,101292.00
2019-04-01T05:55:34.945Z,101286.00
2019-04-01T05:58:03.694Z,101281.00
2019-04-01T06:00:45.544Z,101301.00
2019-04-01T06:03:14.073Z,101297.00
2019-04-01T06:05:42.803Z,101300.00
2019-04-01T06:08:11.780Z,101301.00
2019-04-01T06:10:40.910Z,101304.00
2019-04-01T06:13:09.455Z,101306.00
2019-04-01T06:15:40.019Z,101301.00
2019-04-01T06:18:08.520Z,101299.00
2019-04-01T06:20:37.489Z,101309.00
2019-04-01T06:23:06.247Z,101308.00
2019-04-01T06:25:35.412Z,101307.00
2019-04-01T06:28:04.761Z,101310.00
2019-04-01T06:30:33.704Z,101313.00
2019-04-01T06:33:02.127Z,101315.00
2019-04-01T06:35:31.155Z,101314.00
2019-04-01T06:37:59.928Z,101321.00
2019-04-01T06:40:30.407Z,101330.00
2019-04-01T06:43:00.074Z,101332.00
2019-04-01T06:45:29.375Z,101321.00
2019-04-01T06:47:58.259Z,101338.00
2019-04-01T06:50:26.996Z,101332.00
2019-04-01T06:52:55.593Z,101343.00
2019-04-01T06:55:24.605Z,101344.00
2019-04-01T06:57:53.178Z,101343.00
2019-04-01T07:00:22.214Z,101358.00
2019-04-01T07:02:51.374Z,101352.00
2019-04-01T07:05:20.166Z,101352.00
2019-04-01T07:07:48.883Z,101358.00
2019-04-01T07:10:17.427Z,101368.00
2019-04-01T07:12:46.419Z,101379.00
2019-04-01T07:15:14.765Z,101393.00
2019-04-01T07:17:45.295Z,101411.00
2019-04-01T07:20:14.309Z,101420.00
2019-04-01T07:22:43.060Z,101429.00
2019-04-01T07:25:11.696Z,101450.00
2019-04-01T07:27:40.555Z,101452.00
2019-04-01T07:30:09.696Z,101465.00
2019-04-01T07:32:38.632Z,101461.00
2019-04-01T07:35:07.324Z,101466.00
2019-04-01T07:37:36.352Z,101485.00
2019-04-01T07:40:05.718Z,101487.00
2019-04-01T07:42:34.743Z,101484.00
2019-04-01T07:45:04.163Z,101491.00
2019-04-01T07:47:32.981Z,101492.00
2019-04-01T07:50:02.262Z,101497.00
2019-04-01T07:52:31.435Z,101500.00
2019-04-01T07:55:00.538Z,101502.00
2019-04-01T07:57:32.626Z,101514.00
2019-04-01T08:00:00.516Z,101528.00
2019-04-01T08:02:30.329Z,101519.00
2019-04-01T08:04:59.570Z,101518.00
2019-04-01T08:07:28.698Z,101527.00
2019-04-01T08:09:57.374Z,101538.00
2019-04-01T08:12:27.951Z,101531.00
2019-04-01T08:14:56.854Z,101539.00
2019-04-01T08:17:25.316Z,101529.00
2019-04-01T08:19:55.999Z,101539.00
2019-04-01T08:22:24.944Z,101549.00
2019-04-01T08:24:53.903Z,101546.00
2019-04-01T08:27:22.735Z,101551.00
2019-04-01T08:29:51.204Z,101542.00
2019-04-01T08:32:19.722Z,101548.00
2019-04-01T08:34:49.330Z,101554.00
2019-04-01T08:37:18.127Z,101553.00
2019-04-01T08:39:47.105Z,101554.00
2019-04-01T08:42:16.124Z,101560.00
2019-04-01T08:44:44.608Z,101550.00
2019-04-01T08:47:13.063Z,101554.00
2019-04-01T08:49:41.765Z,101559.00
2019-04-01T08:52:10.144Z,101558.00
2019-04-01T08:54:38.674Z,101558.00
2019-04-01T08:57:07.088Z,101556.00
2019-04-01T08:59:36.196Z,101561.00
2019-04-01T09:02:16.988Z,101562.00
2019-04-01T09:04:36.021Z,101560.00
2019-04-01T09:07:04.789Z,101565.00
2019-04-01T09:09:34.424Z,101561.00
2019-04-01T09:12:04.536Z,101574.00
2019-04-01T09:14:34.704Z,101564.00
2019-04-01T09:17:04.996Z,101557.00
2019-04-01T09:19:33.297Z,101566.00
2019-04-01T09:22:04.610Z,101563.00
2019-04-01T09:24:33.231Z,101571.00
2019-04-01T09:27:01.991Z,101560.00
2019-04-01T09:29:30.633Z,101565.00
2019-04-01T09:31:59.748Z,101565.00
2019-04-01T09:34:28.560Z,101575.00
2019-04-01T09:36:57.384Z,101563.00
2019-04-01T09:39:25.938Z,101565.00
2019-04-01T09:41:54.382Z,101566.00
2019-04-01T09:44:36.089Z,101566.00
2019-04-01T09:46:53.203Z,101568.00
2019-04-01T09:49:22.218Z,101572.00
2019-04-01T09:51:51.314Z,101579.00
2019-04-01T09:54:20.057Z,101576.00
2019-04-01T09:56:48.461Z,101570.00
2019-04-01T09:59:17.091Z,101579.00
2019-04-01T10:01:45.712Z,101578.00
2019-04-01T10:04:14.333Z,101572.00
2019-04-01T10:06:42.759Z,101574.00
2019-04-01T10:09:11.747Z,101573.00
2019-04-01T10:11:40.087Z,101573.00
2019-04-01T10:14:08.606Z,101576.00
2019-04-01T10:16:37.646Z,101570.00
2019-04-01T10:19:06.197Z,101571.00
2019-04-01T10:21:35.621Z,101564.00
2019-04-01T10:24:06.436Z,101572.00
2019-04-01T10:26:35.017Z,101568.00
2019-04-01T10:29:04.220Z,101563.00
2019-04-01T10:31:32.704Z,101564.00
2019-04-01T10:34:02.610Z,101557.00
2019-04-01T10:36:31.310Z,101561.00
2019-04-01T10:38:59.686Z,101563.00
2019-04-01T10:41:28.321Z,101569.00
2019-04-01T10:43:56.914Z,101573.00
2019-04-01T10:46:25.483Z,101571.00
2019-04-01T10:48:54.145Z,101565.00
2019-04-01T10:51:22.651Z,101562.00
2019-04-01T10:53:51.139Z,101568.00
2019-04-01T10:56:20.656Z,101563.00
2019-04-01T10:58:49.407Z,101573.00
2019-04-01T11:01:18.275Z,101567.00
2019-04-01T11:03:46.528Z,101563.00
2019-04-01T11:06:15.643Z,101563.00
2019-04-01T11:08:44.498Z,101565.00
2019-04-01T11:11:13.239Z,101564.00
2019-04-01T11:13:41.848Z,101551.00
2019-04-01T11:16:10.304Z,101563.00
2019-04-01T11:18:38.998Z,101563.00
2019-04-01T11:21:07.628Z,101559.00
2019-04-01T11:23:36.117Z,101552.00
2019-04-01T11:26:07.160Z,101562.00
2019-04-01T11:28:35.555Z,101569.00
2019-04-01T11:31:05.314Z,101562.00
2019-04-01T11:33:33.834Z,101557.00
2019-04-01T11:36:02.695Z,101550.00
2019-04-01T11:38:31.937Z,101554.00
2019-04-01T11:41:00.654Z,101547.00
2019-04-01T11:43:29.709Z,101553.00
2019-04-01T11:45:58.658Z,101558.00
2019-04-01T11:48:27.270Z,101545.00
2019-04-01T11:50:55.650Z,101532.00
2019-04-01T11:53:24.637Z,101521.00
2019-04-01T11:55:53.289Z,101536.00
2019-04-01T11:58:21.763Z,101538.00
2019-04-01T12:00:54.310Z,101538.00
2019-04-01T12:03:23.390Z,101538.00
2019-04-01T12:05:52.407Z,101551.00
2019-04-01T12:08:21.368Z,101538.00
2019-04-01T12:10:50.053Z,101537.00
2019-04-01T12:13:18.740Z,101533.00
2019-04-01T12:15:47.074Z,101530.00
2019-04-01T12:18:15.682Z,101519.00
2019-04-01T12:20:44.039Z,101530.00
2019-04-01T12:23:12.726Z,101525.00
2019-04-01T12:25:41.503Z,101521.00
2019-04-01T12:28:12.600Z,101511.00
2019-04-01T12:30:41.847Z,101508.00
2019-04-01T12:33:10.635Z,101512.00
2019-04-01T12:35:38.926Z,101503.00
2019-04-01T12:38:07.714Z,101498.00
2019-04-01T12:40:36.943Z,101493.00
2019-04-01T12:43:06.815Z,101495.00
2019-04-01T12:45:35.744Z,101505.00
2019-04-01T12:48:06.018Z,101489.00
2019-04-01T12:50:34.390Z,101501.00
2019-04-01T12:53:03.537Z,101494.00
2019-04-01T12:55:31.895Z,101486.00
2019-04-01T12:58:00.574Z,101480.00
2019-04-01T13:00:29.633Z,101483.00
2019-04-01T13:02:58.580Z,101481.00
2019-04-01T13:05:26.940Z,101475.00
2019-04-01T13:07:55.260Z,101470.00
2019-04-01T13:10:23.788Z,101471.00
2019-04-01T13:12:54.101Z,101471.00
2019-04-01T13:15:22.455Z,101472.00
2019-04-01T13:17:50.999Z,101465.00
2019-04-01T13:20:19.717Z,101462.00
2019-04-01T13:22:48.376Z,101453.00
2019-04-01T13:25:17.085Z,101452.00
2019-04-01T13:27:46.659Z,101455.00
2019-04-01T13:30:17.350Z,101447.00
2019-04-01T13:32:45.923Z,101450.00
2019-04-01T13:35:15.129Z,101447.00
2019-04-01T13:37:43.547Z,101437.00
2019-04-01T13:40:12.900Z,101448.00
2019-04-01T13:42:43.323Z,101446.00
2019-04-01T13:45:11.739Z,101443.00
2019-04-01T13:47:41.374Z,101439.00
2019-04-01T13:50:10.458Z,101449.00
2019-04-01T13:52:39.031Z,101438.00
2019-04-01T13:55:09.903Z,101441.00
2019-04-01T13:57:38.311Z,101432.00
2019-04-01T14:00:07.641Z,101430.00
2019-04-01T14:02:35.939Z,101432.00
2019-04-01T14:05:06.443Z,101433.00
2019-04-01T14:07:34.627Z,101433.00
2019-04-01T14:10:04.228Z,101427.00
2019-04-01T14:12:34.995Z,101424.00
2019-04-01T14:15:04.337Z,101414.00
2019-04-01T14:17:32.644Z,101415.00
2019-04-01T14:20:02.782Z,101429.00
2019-04-01T14:22:31.573Z,101414.00
2019-04-01T14:25:00.261Z,101413.00
2019-04-01T14:27:30.177Z,101412.00
2019-04-01T14:29:58.543Z,101410.00
2019-04-01T14:32:28.717Z,101408.00
2019-04-01T14:34:57.289Z,101406.00
2019-04-01T14:37:29.869Z,101410.00
2019-04-01T14:39:56.431Z,101398.00
2019-04-01T14:42:25.131Z,101391.00
2019-04-01T14:44:58.328Z,101388.00
2019-04-01T14:47:26.985Z,101385.00
2019-04-01T14:49:55.448Z,101382.00
2019-04-01T14:52:32.402Z,101396.00
2019-04-01T14:54:55.171Z,101383.00
2019-04-01T14:57:23.899Z,101390.00
2019-04-01T14:59:56.114Z,101382.00
2019-04-01T15:02:22.888Z,101375.00
2019-04-01T15:04:51.912Z,101376.00
2019-04-01T15:07:20.531Z,101371.00
2019-04-01T15:09:49.580Z,101368.00
2019-04-01T15:12:18.337Z,101378.00
2019-04-01T15:14:46.980Z,101365.00
2019-04-01T15:17:15.547Z,101364.00
2019-04-01T15:19:43.984Z,101373.00
2019-04-01T15:22:12.628Z,101366.00
2019-04-01T15:24:41.094Z,101367.00
2019-04-01T15:27:10.090Z,101366.00
2019-04-01T15:29:38.408Z,101366.00
2019-04-01T15:32:06.847Z,101369.00
2019-04-01T15:34:37.391Z,101361.00
2019-04-01T15:37:06.318Z,101361.00
2019-04-01T15:39:34.903Z,101361.00
2019-04-01T15:42:04.628Z,101363.00
2019-04-01T15:44:33.568Z,101362.00
2019-04-01T15:47:04.520Z,101355.00
2019-04-01T15:49:32.851Z,101358.00
2019-04-01T15:52:01.502Z,101355.00
2019-04-01T15:54:30.206Z,101356.00
2019-04-01T15:56:58.625Z,101363.00
2019-04-01T15:59:27.054Z,101352.00
2019-04-01T16:01:55.898Z,101344.00
2019-04-01T16:04:24.311Z,101346.00
2019-04-01T16:06:52.703Z,101343.00
2019-04-01T16:09:22.344Z,101357.00
2019-04-01T16:11:54.142Z,101355.00
2019-04-01T16:14:22.167Z,101352.00
2019-04-01T16:16:50.915Z,101347.00
2019-04-01T16:19:19.543Z,101351.00
2019-04-01T16:21:47.940Z,101350.00
2019-04-01T16:24:16.647Z,101349.00
2019-04-01T16:26:44.967Z,101337.00
2019-04-01T16:29:13.598Z,101348.00
2019-04-01T16:31:42.063Z,101340.00
2019-04-01T16:34:10.999Z,101335.00
2019-04-01T16:36:41.389Z,101340.00
2019-04-01T16:39:10.060Z,101345.00
2019-04-01T16:41:38.395Z,101338.00
2019-04-01T16:44:07.121Z,101344.00
2019-04-01T16:46:35.756Z,101345.00
2019-04-01T16:49:05.030Z,101351.00
2019-04-01T16:51:34.505Z,101343.00
2019-04-01T16:54:04.816Z,101359.00
2019-04-01T16:56:33.123Z,101340.00
2019-04-01T16:59:01.579Z,101344.00
2019-04-01T17:01:30.271Z,101346.00
2019-04-01T17:03:58.979Z,101344.00
2019-04-01T17:06:27.659Z,101343.00
2019-04-01T17:08:56.438Z,101351.00
2019-04-01T17:11:24.750Z,101351.00
2019-04-01T17:13:53.068Z,101351.00
2019-04-01T17:16:21.824Z,101345.00
2019-04-01T17:18:50.418Z,101350.00
2019-04-01T17:21:19.283Z,101352.00
2019-04-01T17:23:47.854Z,101351.00
2019-04-01T17:26:16.247Z,101356.00
2019-04-01T17:28:45.235Z,101363.00
2019-04-01T17:31:13.944Z,101345.00
2019-04-01T17:33:42.546Z,101358.00
2019-04-01T17:36:11.233Z,101361.00
2019-04-01T17:38:41.815Z,101361.00
2019-04-01T17:41:10.739Z,101358.00
2019-04-01T17:43:39.521Z,101351.00
2019-04-01T17:46:09.032Z,101357.00
2019-04-01T17:48:37.784Z,101366.00
2019-04-01T17:51:06.419Z,101360.00
2019-04-01T17:53:34.725Z,101371.00
2019-04-01T17:56:04.950Z,101366.00
2019-04-01T17:58:33.897Z,101365.00
2019-04-01T18:01:02.506Z,101371.00
2019-04-01T18:03:31.178Z,101370.00
2019-04-01T18:05:59.938Z,101374.00
2019-04-01T18:08:29.635Z,101373.00
2019-04-01T18:10:58.136Z,101380.00
2019-04-01T18:13:26.600Z,101378.00
2019-04-01T18:15:57.393Z,101375.00
2019-04-01T18:18:27.516Z,101378.00
2019-04-01T18:20:56.157Z,101378.00
2019-04-01T18:23:26.288Z,101370.00
2019-04-01T18:25:55.174Z,101378.00
2019-04-01T18:28:23.851Z,101387.00
2019-04-01T18:30:52.437Z,101387.00
2019-04-01T18:33:20.921Z,101381.00
2019-04-01T18:35:49.280Z,101388.00
2019-04-01T18:38:17.628Z,101381.00
2019-04-01T18:40:48.182Z,101379.00
2019-04-01T18:43:16.594Z,101388.00
2019-04-01T18:45:45.258Z,101376.00
2019-04-01T18:48:14.833Z,101387.00
2019-04-01T18:50:43.849Z,101389.00
2019-04-01T18:53:12.469Z,101376.00
2019-04-01T18:55:40.890Z,101382.00
2019-04-01T18:58:10.327Z,101387.00
2019-04-01T19:00:38.934Z,101389.00
2019-04-01T19:03:07.914Z,101389.00
2019-04-01T19:05:36.560Z,101385.00
2019-04-01T19:08:04.929Z,101392.00
2019-04-01T19:10:33.417Z,101385.00
2019-04-01T19:13:06.547Z,101388.00
2019-04-01T19:15:33.376Z,101395.00
2019-04-01T19:18:02.775Z,101393.00
2019-04-01T19:20:31.768Z,101390.00
2019-04-01T19:23:02.192Z,101397.00
2019-04-01T19:25:30.887Z,101394.00
2019-04-01T19:27:59.430Z,101390.00
2019-04-01T19:30:27.899Z,101387.00
2019-04-01T19:32:56.512Z,101395.00
2019-04-01T19:35:24.814Z,101388.00
2019-04-01T19:37:53.232Z,101389.00
2019-04-01T19:40:23.552Z,101396.00
2019-04-01T19:42:54.018Z,101393.00
2019-04-01T19:45:22.540Z,101396.00
2019-04-01T19:47:51.053Z,101380.00
2019-04-01T19:50:20.155Z,101387.00
2019-04-01T19:52:49.057Z,101393.00
2019-04-01T19:55:18.317Z,101395.00
2019-04-01T19:57:47.060Z,101397.00
2019-04-01T20:00:27.632Z,101399.00
2019-04-01T20:02:47.565Z,101396.00
2019-04-01T20:05:15.996Z,101401.00
2019-04-01T20:07:44.908Z,101393.00
2019-04-01T20:10:14.032Z,101393.00
2019-04-01T20:12:42.800Z,101393.00
2019-04-01T20:15:12.535Z,101400.00
2019-04-01T20:17:41.294Z,101399.00
2019-04-01T20:20:10.411Z,101403.00
2019-04-01T20:22:40.358Z,101398.00
2019-04-01T20:25:09.584Z,101403.00
2019-04-01T20:27:38.202Z,101400.00
2019-04-01T20:30:09.086Z,101401.00
2019-04-01T20:32:37.855Z,101403.00
2019-04-01T20:35:08.371Z,101404.00
2019-04-01T20:37:37.166Z,101400.00
2019-04-01T20:40:06.947Z,101403.00
2019-04-01T20:42:35.446Z,101402.00
2019-04-01T20:45:07.167Z,101410.00
2019-04-01T20:47:35.975Z,101409.00
2019-04-01T20:50:06.478Z,101407.00
2019-04-01T20:52:35.046Z,101412.00
2019-04-01T20:55:04.064Z,101411.00
2019-04-01T20:57:32.706Z,101408.00
2019-04-01T21:00:03.140Z,101404.00
2019-04-01T21:02:32.179Z,101409.00
2019-04-01T21:05:02.654Z,101408.00
2019-04-01T21:07:31.472Z,101409.00
2019-04-01T21:09:59.980Z,101410.00
2019-04-01T21:12:29.140Z,101400.00
2019-04-01T21:14:57.989Z,101400.00
2019-04-01T21:17:26.835Z,101405.00
2019-04-01T21:19:55.556Z,101412.00
2019-04-01T21:22:26.341Z,101408.00
2019-04-01T21:24:55.174Z,101406.00
2019-04-01T21:27:24.161Z,101396.00
2019-04-01T21:29:53.196Z,101403.00
2019-04-01T21:32:21.722Z,101398.00
2019-04-01T21:34:50.729Z,101401.00
2019-04-01T21:37:19.678Z,101401.00
2019-04-01T21:39:48.285Z,101402.00
2019-04-01T21:42:17.065Z,101404.00
2019-04-01T21:44:46.960Z,101405.00
2019-04-01T21:47:17.519Z,101413.00
2019-04-01T21:49:46.373Z,101398.00
2019-04-01T21:52:14.852Z,101395.00
2019-04-01T21:54:43.886Z,101403.00
2019-04-01T21:57:12.858Z,101396.00
2019-04-01T21:59:41.248Z,101391.00
2019-04-01T22:02:10.028Z,101390.00
2019-04-01T22:04:38.663Z,101389.00
2019-04-01T22:07:07.373Z,101385.00
2019-04-01T22:09:36.386Z,101383.00
2019-04-01T22:12:06.224Z,101380.00
2019-04-01T22:14:34.690Z,101389.00
2019-04-01T22:17:03.340Z,101385.00
2019-04-01T22:19:32.294Z,101385.00
2019-04-01T22:22:00.972Z,101379.00
2019-04-01T22:24:29.670Z,101380.00
2019-04-01T22:26:58.346Z,101383.00
2019-04-01T22:29:27.066Z,101379.00
2019-04-01T22:31:55.995Z,101373.00
2019-04-01T22:34:24.725Z,101379.00
2019-04-01T22:36:53.387Z,101380.00
2019-04-01T22:39:27.276Z,101382.00
2019-04-01T22:41:52.909Z,101375.00
2019-04-01T22:44:23.113Z,101369.00
2019-04-01T22:46:52.153Z,101377.00
2019-04-01T22:49:23.001Z,101365.00
2019-04-01T22:51:51.662Z,101363.00
2019-04-01T22:54:20.098Z,101364.00
2019-04-01T22:56:48.710Z,101362.00
2019-04-01T22:59:17.400Z,101361.00
2019-04-01T23:01:46.107Z,101360.00
2019-04-01T23:04:14.489Z,101358.00
2019-04-01T23:06:43.329Z,101349.00
2019-04-01T23:09:12.273Z,101365.00
2019-04-01T23:11:40.899Z,101357.00
2019-04-01T23:14:09.237Z,101355.00
2019-04-01T23:16:38.498Z,101359.00
2019-04-01T23:19:06.901Z,101359.00
2019-04-01T23:21:35.596Z,101358.00
2019-04-01T23:24:04.170Z,101366.00
2019-04-01T23:26:32.741Z,101362.00
2019-04-01T23:29:02.419Z,101365.00
2019-04-01T23:31:31.279Z,101359.00
2019-04-01T23:33:59.895Z,101358.00
2019-04-01T23:36:29.003Z,101355.00
2019-04-01T23:38:57.952Z,101350.00
2019-04-01T23:41:26.710Z,101342.00
2019-04-01T23:43:55.486Z,101346.00
2019-04-01T23:46:24.101Z,101344.00
2019-04-01T23:48:52.662Z,101345.00
2019-04-01T23:51:23.163Z,101345.00
2019-04-01T23:53:51.669Z,101336.00
2019-04-01T23:56:20.589Z,101341.00
2019-04-01T23:58:49.030Z,101342.00
